createdAt,value
2022-12-27T00:01:29.167Z,100771.81
2022-12-27T00:04:03.409Z,100756.06
2022-12-27T00:06:33.051Z,100753.41
2022-12-27T00:09:04.032Z,100763.97
2022-12-27T00:11:33.979Z,100766.56
2022-12-27T00:14:04.462Z,100763.84
2022-12-27T00:16:36.370Z,100759.09
2022-12-27T00:19:06.350Z,100768.91
2022-12-27T00:21:36.241Z,100760.38
2022-12-27T00:24:05.627Z,100754.38
2022-12-27T00:26:36.424Z,100743.03
2022-12-27T00:29:06.136Z,100740.66
2022-12-27T00:31:37.194Z,100734.44
2022-12-27T00:34:12.655Z,100740.75
2022-12-27T00:36:41.898Z,100738.13
2022-12-27T00:39:12.668Z,100753.00
2022-12-27T00:41:48.284Z,100742.25
2022-12-27T00:44:22.560Z,100751.41
2022-12-27T00:47:02.206Z,100746.38
2022-12-27T00:49:34.127Z,100721.13
2022-12-27T00:54:44.174Z,100718.09
2022-12-27T00:57:13.338Z,100708.50
2022-12-27T00:59:42.673Z,100702.84
2022-12-27T01:02:14.602Z,100705.56
2022-12-27T01:04:43.852Z,100682.41
2022-12-27T01:07:12.908Z,100693.38
2022-12-27T01:09:44.588Z,100671.84
2022-12-27T01:12:13.898Z,100651.78
2022-12-27T01:14:42.956Z,100673.31
2022-12-27T01:17:14.286Z,100678.41
2022-12-27T01:19:43.605Z,100668.31
2022-12-27T01:22:12.735Z,100657.50
2022-12-27T01:24:47.080Z,100660.31
2022-12-27T01:27:16.430Z,100654.41
2022-12-27T01:29:47.503Z,100654.19
2022-12-27T01:34:58.429Z,100646.31
2022-12-27T01:37:29.802Z,100647.88
2022-12-27T01:39:59.524Z,100643.25
2022-12-27T01:42:42.797Z,100637.22
2022-12-27T01:45:19.199Z,100631.97
2022-12-27T01:48:01.156Z,100642.66
2022-12-27T01:50:39.962Z,100625.00
2022-12-27T01:53:13.622Z,100633.75
2022-12-27T01:55:47.825Z,100597.31
2022-12-27T01:58:20.677Z,100618.50
2022-12-27T02:00:51.166Z,100609.38
2022-12-27T02:03:27.235Z,100630.22
2022-12-27T02:05:57.415Z,100610.34
2022-12-27T02:08:40.834Z,100625.19
2022-12-27T02:11:11.137Z,100621.22
2022-12-27T02:13:43.907Z,100620.41
2022-12-27T02:16:33.519Z,100609.00
2022-12-27T02:19:10.725Z,100603.53
2022-12-27T02:22:03.060Z,100596.47
2022-12-27T02:24:53.698Z,100600.19
2022-12-27T02:27:45.888Z,100580.94
2022-12-27T02:30:17.035Z,100594.25
2022-12-27T02:35:31.996Z,100610.19
2022-12-27T02:38:14.316Z,100594.13
2022-12-27T02:40:58.995Z,100583.09
2022-12-27T02:43:41.675Z,100581.59
2022-12-27T02:46:32.066Z,100585.78
2022-12-27T02:49:15.654Z,100579.41
2022-12-27T02:52:20.218Z,100586.19
2022-12-27T02:55:17.452Z,100574.16
2022-12-27T02:58:02.723Z,100577.81
2022-12-27T03:00:50.529Z,100576.38
2022-12-27T03:03:44.870Z,100559.31
2022-12-27T03:06:44.377Z,100541.56
2022-12-27T03:10:08.145Z,100561.25
2022-12-27T03:13:02.174Z,100552.22
2022-12-27T03:15:57.763Z,100545.16
2022-12-27T03:18:52.367Z,100539.13
2022-12-27T03:21:40.972Z,100520.22
2022-12-27T03:24:23.786Z,100531.25
2022-12-27T03:26:54.261Z,100514.94
2022-12-27T03:29:37.487Z,100504.88
2022-12-27T03:32:27.226Z,100500.84
2022-12-27T03:35:03.704Z,100494.81
2022-12-27T03:37:49.328Z,100490.19
2022-12-27T03:40:34.208Z,100480.25
2022-12-27T03:43:11.017Z,100490.16
2022-12-27T03:46:11.808Z,100482.56
2022-12-27T03:48:55.715Z,100490.34
2022-12-27T03:51:30.043Z,100479.50
2022-12-27T03:54:06.192Z,100490.34
2022-12-27T03:56:35.676Z,100487.25
2022-12-27T03:59:05.599Z,100481.44
2022-12-27T04:01:34.874Z,100473.28
2022-12-27T04:04:04.191Z,100468.63
2022-12-27T04:06:43.486Z,100477.06
2022-12-27T04:09:26.453Z,100465.91
2022-12-27T04:12:08.774Z,100467.69
2022-12-27T04:17:39.144Z,100466.78
2022-12-27T04:20:26.130Z,100456.56
2022-12-27T04:23:10.166Z,100449.78
2022-12-27T04:25:57.361Z,100446.66
2022-12-27T04:28:39.459Z,100433.66
2022-12-27T04:31:21.679Z,100425.59
2022-12-27T04:34:05.029Z,100415.34
2022-12-27T04:36:45.143Z,100421.16
2022-12-27T04:39:16.537Z,100412.81
2022-12-27T04:41:58.865Z,100394.94
2022-12-27T04:44:41.018Z,100392.72
2022-12-27T04:47:30.098Z,100389.50
2022-12-27T04:50:12.477Z,100379.50
2022-12-27T04:52:59.570Z,100389.69
2022-12-27T04:55:32.073Z,100380.00
2022-12-27T04:58:01.661Z,100383.81
2022-12-27T05:00:45.644Z,100380.38
2022-12-27T05:03:18.155Z,100361.69
2022-12-27T05:05:49.263Z,100369.41
2022-12-27T05:08:38.611Z,100379.09
2022-12-27T05:11:23.917Z,100382.06
2022-12-27T05:14:02.275Z,100371.44
2022-12-27T05:16:33.019Z,100376.16
2022-12-27T05:19:02.277Z,100372.66
2022-12-27T05:21:31.520Z,100377.19
2022-12-27T05:26:50.450Z,100371.28
2022-12-27T05:29:19.604Z,100357.72
2022-12-27T05:31:53.791Z,100351.97
2022-12-27T05:34:23.157Z,100328.00
2022-12-27T05:36:52.370Z,100349.66
2022-12-27T05:39:21.534Z,100341.09
2022-12-27T05:41:52.663Z,100351.50
2022-12-27T05:44:26.893Z,100346.66
2022-12-27T05:46:56.622Z,100344.00
2022-12-27T05:49:25.805Z,100334.53
2022-12-27T05:54:35.358Z,100340.97
2022-12-27T05:57:06.876Z,100337.31
2022-12-27T05:59:36.309Z,100331.78
2022-12-27T06:02:10.625Z,100334.38
2022-12-27T06:04:40.141Z,100322.66
2022-12-27T06:07:09.468Z,100320.53
2022-12-27T06:09:38.827Z,100306.44
2022-12-27T06:12:10.094Z,100292.84
2022-12-27T06:14:40.987Z,100294.16
2022-12-27T06:17:10.032Z,100308.09
2022-12-27T06:19:39.750Z,100313.72
2022-12-27T06:22:08.917Z,100318.25
2022-12-27T06:24:49.460Z,100313.47
2022-12-27T06:27:20.777Z,100296.28
2022-12-27T06:29:50.050Z,100307.34
2022-12-27T06:32:19.266Z,100310.34
2022-12-27T06:34:48.503Z,100315.38
2022-12-27T06:37:17.746Z,100308.63
2022-12-27T06:39:46.954Z,100308.72
2022-12-27T06:42:16.172Z,100308.00
2022-12-27T06:44:47.913Z,100299.44
2022-12-27T06:47:17.298Z,100287.88
2022-12-27T06:49:47.185Z,100302.97
2022-12-27T06:52:16.355Z,100297.56
2022-12-27T06:54:45.465Z,100285.81
2022-12-27T06:57:14.734Z,100259.28
2022-12-27T06:59:48.080Z,100284.50
2022-12-27T07:02:22.347Z,100267.75
2022-12-27T07:04:51.605Z,100270.63
2022-12-27T07:07:20.726Z,100254.00
2022-12-27T07:09:55.039Z,100228.09
2022-12-27T07:12:24.327Z,100257.06
2022-12-27T07:14:53.516Z,100258.59
2022-12-27T07:17:24.769Z,100227.78
2022-12-27T07:19:54.055Z,100257.59
2022-12-27T07:22:23.174Z,100261.41
2022-12-27T07:24:52.462Z,100257.03
2022-12-27T07:27:21.533Z,100249.28
2022-12-27T07:29:51.238Z,100249.19
2022-12-27T07:32:26.691Z,100236.59
2022-12-27T07:34:58.335Z,100238.78
2022-12-27T07:37:27.571Z,100226.69
2022-12-27T07:39:56.610Z,100214.59
2022-12-27T07:42:37.926Z,100223.84
2022-12-27T07:45:12.405Z,100199.84
2022-12-27T07:47:41.654Z,100215.19
2022-12-27T07:50:13.162Z,100216.59
2022-12-27T07:52:42.433Z,100194.44
2022-12-27T07:55:12.003Z,100207.00
2022-12-27T07:57:41.812Z,100206.03
2022-12-27T08:00:12.178Z,100210.97
2022-12-27T08:02:42.992Z,100198.09
2022-12-27T08:05:25.896Z,100201.78
2022-12-27T08:08:00.848Z,100199.50
2022-12-27T08:10:30.348Z,100192.28
2022-12-27T08:12:59.611Z,100192.19
2022-12-27T08:15:28.901Z,100178.00
2022-12-27T08:17:58.221Z,100182.63
2022-12-27T08:20:29.781Z,100173.56
2022-12-27T08:23:05.647Z,100168.78
2022-12-27T08:25:34.738Z,100156.41
2022-12-27T08:28:12.092Z,100162.34
2022-12-27T08:30:42.150Z,100158.16
2022-12-27T08:33:11.583Z,100153.84
2022-12-27T08:38:24.519Z,100150.59
2022-12-27T08:40:53.574Z,100140.00
2022-12-27T08:43:29.527Z,100121.22
2022-12-27T08:46:02.991Z,100146.28
2022-12-27T08:51:14.540Z,100134.63
2022-12-27T08:53:51.895Z,100131.13
2022-12-27T08:56:21.076Z,100118.78
2022-12-27T08:58:51.177Z,100128.69
2022-12-27T09:01:20.637Z,100108.47
2022-12-27T09:03:49.804Z,100105.44
2022-12-27T09:06:27.302Z,100107.25
2022-12-27T09:08:56.900Z,100091.00
2022-12-27T09:11:27.882Z,100072.94
2022-12-27T09:14:01.462Z,100075.09
2022-12-27T09:16:38.657Z,100090.22
2022-12-27T09:19:07.816Z,100034.41
2022-12-27T09:21:42.500Z,100070.66
2022-12-27T09:24:13.746Z,100038.06
2022-12-27T09:26:44.654Z,100057.75
2022-12-27T09:29:14.483Z,100062.63
2022-12-27T09:31:43.664Z,100038.66
2022-12-27T09:34:13.597Z,100063.13
2022-12-27T09:36:45.954Z,100057.78
2022-12-27T09:44:57.814Z,100034.00
2022-12-27T09:47:30.508Z,100020.38
2022-12-27T09:50:04.867Z,100036.50
2022-12-27T09:52:43.105Z,100048.09
2022-12-27T09:55:19.701Z,100044.31
2022-12-27T09:57:50.130Z,100031.19
2022-12-27T10:00:34.820Z,100040.59
2022-12-27T10:03:07.363Z,100050.16
2022-12-27T10:08:36.844Z,100019.44
2022-12-27T10:11:35.685Z,100038.22
2022-12-27T10:14:16.236Z,100038.59
2022-12-27T10:17:03.463Z,100021.06
2022-12-27T10:19:48.159Z,100023.19
2022-12-27T10:22:30.874Z,100006.16
2022-12-27T10:25:07.084Z,99998.50
2022-12-27T10:27:36.956Z,99996.13
2022-12-27T10:30:16.762Z,100001.41
2022-12-27T10:32:51.648Z,100006.78
2022-12-27T10:35:23.726Z,99967.22
2022-12-27T10:37:53.638Z,99989.16
2022-12-27T10:40:34.498Z,99986.94
2022-12-27T10:43:07.968Z,99983.19
2022-12-27T10:45:41.832Z,99940.50
2022-12-27T10:48:21.030Z,99966.03
2022-12-27T10:50:59.709Z,99958.53
2022-12-27T10:53:36.406Z,99966.13
2022-12-27T10:56:16.632Z,99949.41
2022-12-27T10:58:54.642Z,99955.44
2022-12-27T11:01:29.392Z,99948.25
2022-12-27T11:04:20.572Z,99942.44
2022-12-27T11:06:52.144Z,99930.47
2022-12-27T11:09:28.028Z,99941.84
2022-12-27T11:12:18.907Z,99938.22
2022-12-27T11:14:59.824Z,99928.69
2022-12-27T11:17:31.584Z,99922.50
2022-12-27T11:20:04.349Z,99920.28
2022-12-27T11:22:34.065Z,99925.31
2022-12-27T11:25:03.621Z,99904.97
2022-12-27T11:27:35.319Z,99900.69
2022-12-27T11:30:04.605Z,99886.16
2022-12-27T11:32:34.929Z,99891.94
2022-12-27T11:35:04.496Z,99888.63
2022-12-27T11:37:33.803Z,99871.50
2022-12-27T11:40:23.051Z,99886.88
2022-12-27T11:42:59.871Z,99882.63
2022-12-27T11:45:36.639Z,99849.75
2022-12-27T11:48:14.965Z,99858.16
2022-12-27T11:51:02.735Z,99866.38
2022-12-27T11:54:05.546Z,99858.66
2022-12-27T11:56:38.775Z,99869.38
2022-12-27T11:59:40.452Z,99864.88
2022-12-27T12:02:34.149Z,99863.22
2022-12-27T12:05:41.453Z,99865.53
2022-12-27T12:08:36.025Z,99858.78
2022-12-27T12:11:15.110Z,99860.41
2022-12-27T12:14:21.613Z,99862.06
2022-12-27T12:17:41.080Z,99853.66
2022-12-27T12:20:34.451Z,99856.13
2022-12-27T12:23:12.780Z,99851.38
2022-12-27T12:26:07.561Z,99854.56
2022-12-27T12:29:06.221Z,99840.97
2022-12-27T12:32:05.686Z,99844.31
2022-12-27T12:35:01.066Z,99833.44
2022-12-27T12:37:59.563Z,99826.25
2022-12-27T12:40:58.657Z,99817.00
2022-12-27T12:43:58.032Z,99813.97
2022-12-27T12:46:34.424Z,99811.66
2022-12-27T12:55:02.999Z,99805.88
2022-12-27T12:57:47.969Z,99803.72
2022-12-27T13:00:39.243Z,99799.88
2022-12-27T13:03:31.010Z,99802.69
2022-12-27T13:06:13.871Z,99802.25
2022-12-27T13:08:54.554Z,99784.47
2022-12-27T13:11:43.436Z,99794.72
2022-12-27T13:14:29.328Z,99780.44
2022-12-27T13:17:04.279Z,99787.38
2022-12-27T13:20:00.418Z,99778.31
2022-12-27T13:22:46.950Z,99761.34
2022-12-27T13:25:27.365Z,99763.34
2022-12-27T13:28:25.795Z,99772.28
2022-12-27T13:31:03.793Z,99783.34
2022-12-27T13:33:45.528Z,99776.50
2022-12-27T13:36:29.124Z,99767.97
2022-12-27T13:39:19.880Z,99744.16
2022-12-27T13:42:19.821Z,99772.94
2022-12-27T13:45:03.137Z,99748.06
2022-12-27T13:48:05.853Z,99742.88
2022-12-27T13:50:58.822Z,99751.06
2022-12-27T13:54:12.083Z,99744.34
2022-12-27T13:56:56.616Z,99743.56
2022-12-27T13:59:48.952Z,99744.66
2022-12-27T14:02:52.772Z,99737.28
2022-12-27T14:06:00.486Z,99726.50
2022-12-27T14:08:42.931Z,99742.47
2022-12-27T14:11:31.112Z,99727.16
2022-12-27T14:14:02.537Z,99726.88
2022-12-27T14:16:41.444Z,99724.34
2022-12-27T14:19:36.665Z,99712.53
2022-12-27T14:22:26.640Z,99723.56
2022-12-27T14:25:31.068Z,99715.38
2022-12-27T14:28:32.895Z,99697.84
2022-12-27T14:31:34.538Z,99724.41
2022-12-27T14:34:30.101Z,99706.75
2022-12-27T14:37:24.838Z,99713.13
2022-12-27T14:40:34.789Z,99713.13
2022-12-27T14:43:51.966Z,99696.22
2022-12-27T14:46:56.959Z,99675.66
2022-12-27T14:49:59.989Z,99700.59
2022-12-27T14:53:06.943Z,99698.19
2022-12-27T14:56:03.732Z,99694.72
2022-12-27T14:58:51.479Z,99690.72
2022-12-27T15:01:39.127Z,99682.56
2022-12-27T15:04:34.372Z,99682.88
2022-12-27T15:07:33.910Z,99677.50
2022-12-27T15:10:11.990Z,99681.06
2022-12-27T15:12:51.840Z,99681.84
2022-12-27T15:15:35.336Z,99658.72
2022-12-27T15:18:18.930Z,99677.91
2022-12-27T15:21:03.420Z,99674.09
2022-12-27T15:23:46.165Z,99676.97
2022-12-27T15:26:23.875Z,99667.72
2022-12-27T15:29:19.490Z,99665.88
2022-12-27T15:31:59.425Z,99668.59
2022-12-27T15:34:42.944Z,99656.81
2022-12-27T15:37:42.066Z,99659.50
2022-12-27T15:40:40.722Z,99656.19
2022-12-27T15:43:24.392Z,99646.56
2022-12-27T15:46:09.944Z,99643.59
2022-12-27T15:48:53.816Z,99651.31
2022-12-27T15:51:34.071Z,99640.38
2022-12-27T15:54:24.506Z,99619.53
2022-12-27T15:57:38.259Z,99622.47
2022-12-27T16:00:16.784Z,99638.63
2022-12-27T16:02:54.262Z,99613.06
2022-12-27T16:05:44.670Z,99623.38
2022-12-27T16:08:41.508Z,99621.16
2022-12-27T16:11:13.621Z,99618.72
2022-12-27T16:13:48.521Z,99619.63
2022-12-27T16:16:56.731Z,99617.97
2022-12-27T16:19:41.065Z,99583.63
2022-12-27T16:22:25.578Z,99586.94
2022-12-27T16:24:55.432Z,99608.59
2022-12-27T16:27:32.732Z,99589.00
2022-12-27T16:30:02.479Z,99603.63
2022-12-27T16:32:34.455Z,99608.06
2022-12-27T16:35:17.464Z,99589.38
2022-12-27T16:37:54.307Z,99601.72
2022-12-27T16:40:42.634Z,99576.03
2022-12-27T16:43:51.053Z,99581.31
2022-12-27T16:46:36.343Z,99587.56
2022-12-27T16:49:24.950Z,99537.00
2022-12-27T16:52:13.433Z,99579.06
2022-12-27T16:54:53.827Z,99567.28
2022-12-27T16:57:48.080Z,99515.72
2022-12-27T17:00:39.891Z,99565.78
2022-12-27T17:03:35.006Z,99562.53
2022-12-27T17:06:34.436Z,99557.59
2022-12-27T17:09:38.865Z,99542.59
2022-12-27T17:12:19.271Z,99529.69
2022-12-27T17:17:26.460Z,99541.25
2022-12-27T17:20:11.937Z,99535.97
2022-12-27T17:22:41.755Z,99520.56
2022-12-27T17:25:27.353Z,99533.63
2022-12-27T17:28:11.369Z,99537.91
2022-12-27T17:30:52.757Z,99532.94
2022-12-27T17:33:37.340Z,99524.44
2022-12-27T17:36:54.567Z,99494.19
2022-12-27T17:39:44.984Z,99512.28
2022-12-27T17:42:34.433Z,99505.44
2022-12-27T17:45:21.047Z,99507.28
2022-12-27T17:48:07.925Z,99503.94
2022-12-27T17:50:41.114Z,99492.72
2022-12-27T17:53:32.904Z,99469.66
2022-12-27T17:56:17.460Z,99492.16
2022-12-27T17:58:46.907Z,99497.28
2022-12-27T18:01:18.203Z,99488.06
2022-12-27T18:03:49.242Z,99494.09
2022-12-27T18:06:21.521Z,99471.09
2022-12-27T18:08:52.117Z,99481.53
2022-12-27T18:11:27.754Z,99441.06
2022-12-27T18:14:01.003Z,99484.22
2022-12-27T18:16:39.635Z,99486.72
2022-12-27T18:19:20.886Z,99471.34
2022-12-27T18:21:57.348Z,99473.19
2022-12-27T18:24:29.008Z,99483.47
2022-12-27T18:27:12.104Z,99480.97
2022-12-27T18:29:46.583Z,99481.81
2022-12-27T18:32:20.493Z,99473.41
2022-12-27T18:34:56.096Z,99464.94
2022-12-27T18:37:27.642Z,99452.94
2022-12-27T18:39:59.836Z,99450.53
2022-12-27T18:42:36.252Z,99419.63
2022-12-27T18:45:09.170Z,99402.72
2022-12-27T18:47:46.878Z,99444.03
2022-12-27T18:50:19.914Z,99445.72
2022-12-27T18:52:54.941Z,99414.97
2022-12-27T18:55:27.250Z,99442.38
2022-12-27T18:58:05.389Z,99401.09
2022-12-27T19:00:48.178Z,99416.84
2022-12-27T19:03:21.456Z,99436.59
2022-12-27T19:06:10.293Z,99408.38
2022-12-27T19:08:45.555Z,99398.97
2022-12-27T19:11:23.768Z,99421.38
2022-12-27T19:13:56.228Z,99421.56
2022-12-27T19:16:29.467Z,99420.75
2022-12-27T19:19:08.424Z,99413.13
2022-12-27T19:21:40.472Z,99426.66
2022-12-27T19:24:23.181Z,99415.72
2022-12-27T19:27:06.652Z,99413.19
2022-12-27T19:29:42.569Z,99412.31
2022-12-27T19:32:21.336Z,99396.16
2022-12-27T19:34:54.672Z,99405.50
2022-12-27T19:37:27.504Z,99398.06
2022-12-27T19:40:02.137Z,99399.84
2022-12-27T19:42:35.055Z,99389.66
2022-12-27T19:45:04.556Z,99397.44
2022-12-27T19:47:38.826Z,99382.75
2022-12-27T19:50:11.576Z,99394.00
2022-12-27T19:52:47.088Z,99401.75
2022-12-27T19:55:29.950Z,99373.75
2022-12-27T19:57:59.601Z,99396.69
2022-12-27T20:00:28.923Z,99391.66
2022-12-27T20:02:58.440Z,99390.00
2022-12-27T20:06:11.734Z,99394.31
2022-12-27T20:08:26.270Z,99377.44
2022-12-27T20:11:01.891Z,99380.81
2022-12-27T20:13:31.114Z,99368.88
2022-12-27T20:16:07.261Z,99343.16
2022-12-27T20:18:36.694Z,99378.31
2022-12-27T20:21:18.280Z,99371.50
2022-12-27T20:23:49.274Z,99375.69
2022-12-27T20:26:21.094Z,99376.50
2022-12-27T20:28:50.133Z,99373.09
2022-12-27T20:31:22.966Z,99368.00
2022-12-27T20:33:58.173Z,99367.16
2022-12-27T20:36:29.413Z,99363.00
2022-12-27T20:39:00.563Z,99364.72
2022-12-27T20:44:19.359Z,99344.56
2022-12-27T20:49:34.187Z,99342.03
2022-12-27T20:52:05.825Z,99314.47
2022-12-27T20:57:16.076Z,99327.69
2022-12-27T20:59:50.342Z,99308.63
2022-12-27T21:02:20.365Z,99327.66
2022-12-27T21:04:49.684Z,99274.34
2022-12-27T21:07:20.883Z,99331.16
2022-12-27T21:09:50.235Z,99326.09
2022-12-27T21:12:19.594Z,99325.22
2022-12-27T21:14:49.576Z,99325.28
2022-12-27T21:17:18.941Z,99325.31
2022-12-27T21:19:55.146Z,99316.13
2022-12-27T21:22:26.291Z,99311.88
2022-12-27T21:24:55.634Z,99318.72
2022-12-27T21:27:24.689Z,99312.78
2022-12-27T21:30:01.384Z,99310.22
2022-12-27T21:32:32.353Z,99305.25
2022-12-27T21:35:07.320Z,99296.81
2022-12-27T21:37:38.416Z,99307.03
2022-12-27T21:40:09.314Z,99304.53
2022-12-27T21:42:38.480Z,99302.00
2022-12-27T21:45:08.872Z,99294.19
2022-12-27T21:47:38.258Z,99299.44
2022-12-27T21:50:08.170Z,99294.38
2022-12-27T21:52:39.406Z,99298.59
2022-12-27T21:55:09.191Z,99287.59
2022-12-27T21:57:48.293Z,99276.41
2022-12-27T22:00:18.277Z,99281.63
2022-12-27T22:02:49.628Z,99280.81
2022-12-27T22:05:24.966Z,99269.72
2022-12-27T22:07:58.187Z,99274.97
2022-12-27T22:10:27.496Z,99279.16
2022-12-27T22:12:56.628Z,99277.59
2022-12-27T22:15:25.990Z,99269.22
2022-12-27T22:18:01.400Z,99247.66
2022-12-27T22:20:30.611Z,99266.66
2022-12-27T22:23:01.632Z,99256.56
2022-12-27T22:25:35.985Z,99238.50
2022-12-27T22:28:05.060Z,99248.66
2022-12-27T22:30:37.166Z,99254.00
2022-12-27T22:35:47.168Z,99237.72
2022-12-27T22:38:18.281Z,99234.34
2022-12-27T22:40:47.470Z,99233.44
2022-12-27T22:43:16.734Z,99244.66
2022-12-27T22:45:51.932Z,99243.88
2022-12-27T22:48:23.021Z,99248.06
2022-12-27T22:50:52.167Z,99241.28
2022-12-27T22:53:28.725Z,99248.91
2022-12-27T22:55:58.042Z,99247.22
2022-12-27T22:58:31.150Z,99226.63
2022-12-27T23:01:12.620Z,99245.53
2022-12-27T23:03:42.069Z,99243.00
2022-12-27T23:06:12.071Z,99237.09
2022-12-27T23:08:49.412Z,99235.41
2022-12-27T23:11:25.974Z,99244.75
2022-12-27T23:13:57.530Z,99220.84
2022-12-27T23:16:27.228Z,99229.56
2022-12-27T23:18:57.048Z,99224.50
2022-12-27T23:21:26.261Z,99227.03
2022-12-27T23:24:02.846Z,99222.78
2022-12-27T23:26:32.345Z,99221.91
2022-12-27T23:29:01.960Z,99213.41
2022-12-27T23:31:31.364Z,99212.63
2022-12-27T23:34:00.755Z,99205.81
2022-12-27T23:36:32.391Z,99216.84
2022-12-27T23:39:03.752Z,99208.44
2022-12-27T23:41:33.381Z,99212.69
2022-12-27T23:44:03.041Z,99191.28
2022-12-27T23:46:37.417Z,99196.63
2022-12-27T23:49:06.761Z,99182.72
2022-12-27T23:51:36.096Z,99200.88
2022-12-27T23:54:07.333Z,99188.78
2022-12-27T23:56:36.590Z,99198.38
2022-12-27T23:59:10.755Z,99187.13
